Watford, Canada
Current Conditions -  °F | °C
As of 11:00 AM on Friday 19 Dec 2014 (Local Time) from CYZR Reporting Station
Overcast Overcast  
Wind Chill: 19°   Ceiling: 3000
Heat Index: 28°   Visibility: 9mi
Dew Point: 21°   Wind: 10mph
Humidity: 74%   Direction: 290°WNW
Pressure: 30.26"   Gusts: NA
Location:  42.95°N, 81.88°W
Report Text: CYZR 191600Z AUTO 29009KT 9SM OVC030 M02/M06 A3026 RMK SLP257
Loading
Personal Weather Stations






























Interactive Weather Map New forecast layout! Learn more

10-Day Weather Forecast

Advertisements
Track Severe Weather on mobile